createdAt,value
2019-05-03T00:02:14.982Z,13.70
2019-05-03T00:04:46.455Z,13.60
2019-05-03T00:07:16.754Z,13.60
2019-05-03T00:09:47.230Z,13.80
2019-05-03T00:12:17.587Z,14.10
2019-05-03T00:14:51.992Z,14.40
2019-05-03T00:17:22.555Z,14.60
2019-05-03T00:19:52.999Z,14.80
2019-05-03T00:22:23.371Z,14.90
2019-05-03T00:25:05.299Z,14.90
2019-05-03T00:27:25.925Z,15.00
2019-05-03T00:29:56.306Z,15.00
2019-05-03T00:32:28.515Z,15.10
2019-05-03T00:35:01.825Z,15.10
2019-05-03T00:37:34.223Z,15.10
2019-05-03T00:40:06.487Z,15.10
2019-05-03T00:42:37.355Z,15.10
2019-05-03T00:45:08.211Z,15.10
2019-05-03T00:47:38.556Z,15.10
2019-05-03T00:50:09.037Z,15.10
2019-05-03T00:52:39.507Z,15.00
2019-05-03T00:55:16.326Z,15.10
2019-05-03T00:57:41.963Z,15.00
2019-05-03T01:00:12.592Z,15.00
2019-05-03T01:02:42.938Z,14.80
2019-05-03T01:05:13.315Z,14.70
2019-05-03T01:07:43.862Z,14.40
2019-05-03T01:10:15.048Z,14.30
2019-05-03T01:12:45.426Z,14.20
2019-05-03T01:15:26.036Z,14.10
2019-05-03T01:17:56.826Z,14.00
2019-05-03T01:20:27.184Z,13.90
2019-05-03T01:22:57.650Z,13.90
2019-05-03T01:25:32.193Z,14.00
2019-05-03T01:28:01.522Z,14.00
2019-05-03T01:30:32.109Z,14.10
2019-05-03T01:33:02.874Z,14.20
2019-05-03T01:35:33.475Z,14.40
2019-05-03T01:38:03.852Z,14.30
2019-05-03T01:40:34.320Z,14.20
2019-05-03T01:43:04.703Z,14.10
2019-05-03T01:45:35.311Z,13.90
2019-05-03T01:48:18.351Z,13.70
2019-05-03T01:50:56.450Z,13.50
2019-05-03T01:53:27.926Z,13.30
2019-05-03T01:55:58.242Z,13.00
2019-05-03T01:58:28.602Z,12.90
2019-05-03T02:01:10.228Z,12.90
2019-05-03T02:03:47.334Z,12.80
2019-05-03T02:06:17.609Z,12.70
2019-05-03T02:08:48.094Z,12.60
2019-05-03T02:11:18.554Z,12.60
2019-05-03T02:13:48.922Z,12.50
2019-05-03T02:16:19.438Z,12.30
2019-05-03T02:18:51.682Z,12.20
2019-05-03T02:21:21.815Z,12.20
2019-05-03T02:23:52.222Z,12.20
2019-05-03T02:26:22.562Z,12.20
2019-05-03T02:28:52.955Z,12.20
2019-05-03T02:31:23.430Z,12.30
2019-05-03T02:33:53.884Z,12.20
2019-05-03T02:36:24.319Z,12.30
2019-05-03T02:38:54.878Z,12.20
2019-05-03T02:41:25.267Z,12.20
2019-05-03T02:43:56.266Z,12.20
2019-05-03T02:46:45.467Z,12.20
2019-05-03T02:49:29.371Z,12.20
2019-05-03T02:51:59.735Z,12.20
2019-05-03T02:54:30.187Z,12.20
2019-05-03T02:57:00.492Z,12.20
2019-05-03T02:59:31.063Z,12.10
2019-05-03T03:02:01.520Z,12.00
2019-05-03T03:04:35.137Z,12.00
2019-05-03T03:07:05.678Z,11.90
2019-05-03T03:09:36.562Z,11.80
2019-05-03T03:12:08.433Z,11.80
2019-05-03T03:14:40.479Z,11.80
2019-05-03T03:17:12.056Z,11.70
2019-05-03T03:19:46.144Z,11.70
2019-05-03T03:22:18.189Z,11.70
2019-05-03T03:24:50.426Z,11.70
2019-05-03T03:27:25.639Z,11.70
2019-05-03T03:30:28.886Z,11.70
2019-05-03T03:32:58.063Z,11.70
2019-05-03T03:35:30.712Z,11.70
2019-05-03T03:38:01.074Z,11.70
2019-05-03T03:40:31.756Z,11.70
2019-05-03T03:43:05.380Z,11.60
2019-05-03T03:45:36.469Z,11.60
2019-05-03T03:48:06.969Z,11.60
2019-05-03T03:50:39.241Z,11.60
2019-05-03T03:53:11.640Z,11.50
2019-05-03T03:55:45.854Z,11.50
2019-05-03T03:58:22.331Z,11.50
2019-05-03T04:00:48.876Z,11.50
2019-05-03T04:03:19.356Z,11.50
2019-05-03T04:05:49.864Z,11.50
2019-05-03T04:08:20.396Z,11.40
2019-05-03T04:10:50.763Z,11.40
2019-05-03T04:13:22.447Z,11.40
2019-05-03T04:16:10.716Z,11.30
2019-05-03T04:18:51.651Z,11.30
2019-05-03T04:21:25.450Z,11.40
2019-05-03T04:23:56.178Z,11.30
2019-05-03T04:26:29.780Z,11.30
2019-05-03T04:28:59.064Z,11.30
2019-05-03T04:31:29.752Z,11.30
2019-05-03T04:34:00.279Z,11.30
2019-05-03T04:36:30.789Z,11.40
2019-05-03T04:39:01.443Z,11.40
2019-05-03T04:41:32.120Z,11.50
2019-05-03T04:44:06.338Z,11.60
2019-05-03T04:46:37.159Z,11.60
2019-05-03T04:49:07.745Z,11.70
2019-05-03T04:51:38.371Z,11.70
2019-05-03T04:54:35.600Z,11.70
2019-05-03T04:57:06.559Z,11.80
2019-05-03T04:59:37.208Z,11.90
2019-05-03T05:02:07.662Z,12.00
2019-05-03T05:04:38.126Z,12.10
2019-05-03T05:07:08.551Z,12.10
2019-05-03T05:09:38.979Z,12.30
2019-05-03T05:12:09.339Z,12.40
2019-05-03T05:14:39.712Z,12.50
2019-05-03T05:17:11.748Z,12.60
2019-05-03T05:19:58.478Z,12.80
2019-05-03T05:22:30.837Z,12.80
2019-05-03T05:25:04.523Z,13.00
2019-05-03T05:27:49.453Z,13.00
2019-05-03T05:30:16.084Z,13.10
2019-05-03T05:32:46.435Z,13.20
2019-05-03T05:35:17.097Z,13.40
2019-05-03T05:37:47.447Z,13.50
2019-05-03T05:40:21.158Z,13.70
2019-05-03T05:42:51.579Z,13.70
2019-05-03T05:45:22.043Z,13.80
2019-05-03T05:47:58.167Z,13.70
2019-05-03T05:50:31.099Z,13.60
2019-05-03T05:53:01.790Z,13.60
2019-05-03T05:56:00.272Z,13.50
2019-05-03T05:58:47.984Z,13.60
2019-05-03T06:01:22.551Z,13.60
2019-05-03T06:03:54.970Z,13.70
2019-05-03T06:06:45.147Z,13.80
2019-05-03T06:09:23.016Z,14.00
2019-05-03T06:12:00.512Z,14.10
2019-05-03T06:14:54.431Z,14.20
2019-05-03T06:17:29.843Z,14.30
2019-05-03T06:20:20.007Z,14.50
2019-05-03T06:23:14.487Z,14.60
2019-05-03T06:25:45.369Z,14.60
2019-05-03T06:28:25.064Z,14.70
2019-05-03T06:31:14.778Z,14.70
2019-05-03T06:33:45.130Z,14.70
2019-05-03T06:36:15.673Z,14.80
2019-05-03T06:38:46.127Z,14.90
2019-05-03T06:41:16.483Z,15.00
2019-05-03T06:43:48.791Z,15.10
2019-05-03T06:46:23.528Z,15.10
2019-05-03T06:48:54.310Z,15.20
2019-05-03T06:51:24.918Z,15.20
2019-05-03T06:53:55.332Z,15.30
2019-05-03T06:56:29.132Z,15.40
2019-05-03T06:58:57.719Z,15.40
2019-05-03T07:01:34.572Z,15.50
2019-05-03T07:04:10.399Z,15.60
2019-05-03T07:06:48.419Z,15.70
2019-05-03T07:09:37.706Z,15.60
2019-05-03T07:12:07.994Z,15.70
2019-05-03T07:14:38.454Z,15.60
2019-05-03T07:17:08.734Z,15.70
2019-05-03T07:19:39.075Z,15.70
2019-05-03T07:22:09.655Z,15.70
2019-05-03T07:24:40.894Z,15.80
2019-05-03T07:27:11.473Z,15.80
2019-05-03T07:29:41.926Z,15.80
2019-05-03T07:32:12.427Z,16.00
2019-05-03T07:34:42.874Z,16.10
2019-05-03T07:37:14.519Z,16.00
2019-05-03T07:39:45.383Z,16.10
2019-05-03T07:42:15.777Z,16.10
2019-05-03T07:44:46.170Z,16.10
2019-05-03T07:47:16.454Z,16.10
2019-05-03T07:49:46.896Z,16.20
2019-05-03T07:52:17.356Z,16.40
2019-05-03T07:54:47.698Z,16.60
2019-05-03T07:57:38.561Z,17.10
2019-05-03T08:00:09.611Z,17.80
2019-05-03T08:02:39.982Z,18.60
2019-05-03T08:05:10.438Z,19.00
2019-05-03T08:07:40.800Z,19.30
2019-05-03T08:10:11.258Z,19.30
2019-05-03T08:12:41.518Z,19.30
2019-05-03T08:15:11.806Z,19.30
2019-05-03T08:17:42.155Z,19.20
2019-05-03T08:20:14.293Z,18.90
2019-05-03T08:22:44.864Z,18.90
2019-05-03T08:25:15.314Z,18.70
2019-05-03T08:27:45.667Z,18.70
2019-05-03T08:30:20.555Z,18.60
2019-05-03T08:33:09.771Z,18.30
2019-05-03T08:35:42.470Z,18.20
2019-05-03T08:38:12.819Z,18.10
2019-05-03T08:40:46.460Z,17.90
2019-05-03T08:43:16.931Z,17.90
2019-05-03T08:45:47.394Z,17.90
2019-05-03T08:48:17.686Z,18.10
2019-05-03T08:50:48.041Z,18.50
2019-05-03T08:53:18.398Z,19.10
2019-05-03T08:55:48.743Z,19.60
2019-05-03T08:58:19.483Z,19.90
2019-05-03T09:00:49.883Z,20.40
2019-05-03T09:03:20.310Z,20.80
2019-05-03T09:05:50.679Z,21.00
2019-05-03T09:08:21.123Z,21.50
2019-05-03T09:10:58.430Z,21.80
2019-05-03T09:13:41.671Z,22.50
2019-05-03T09:16:12.058Z,22.80
2019-05-03T09:18:42.528Z,22.90
2019-05-03T09:21:14.691Z,23.00
2019-05-03T09:23:45.181Z,23.10
2019-05-03T09:26:15.627Z,22.90
2019-05-03T09:28:45.994Z,22.60
2019-05-03T09:31:16.508Z,22.30
2019-05-03T09:33:46.974Z,21.80
2019-05-03T09:36:17.257Z,21.70
2019-05-03T09:38:48.427Z,21.30
2019-05-03T09:41:18.766Z,21.10
2019-05-03T09:43:49.140Z,21.00
2019-05-03T09:46:19.585Z,20.90
2019-05-03T09:48:50.032Z,20.60
2019-05-03T09:51:20.497Z,20.40
2019-05-03T09:53:56.124Z,20.40
2019-05-03T09:56:53.551Z,20.30
2019-05-03T09:59:16.439Z,20.20
2019-05-03T10:01:46.795Z,19.90
2019-05-03T10:04:18.090Z,19.70
2019-05-03T10:06:48.534Z,19.70
2019-05-03T10:09:18.886Z,19.90
2019-05-03T10:11:49.162Z,20.00
2019-05-03T10:14:19.440Z,19.80
2019-05-03T10:17:07.689Z,19.30
2019-05-03T10:19:40.405Z,19.00
2019-05-03T10:22:10.314Z,18.60
2019-05-03T10:24:40.699Z,18.20
2019-05-03T10:27:11.056Z,17.90
2019-05-03T10:29:41.801Z,17.70
2019-05-03T10:32:22.080Z,17.40
2019-05-03T10:34:57.974Z,17.20
2019-05-03T10:37:32.203Z,17.10
2019-05-03T10:40:07.754Z,17.00
2019-05-03T10:42:36.030Z,16.80
2019-05-03T10:45:06.782Z,16.60
2019-05-03T10:47:37.139Z,16.50
2019-05-03T10:50:07.680Z,16.30
2019-05-03T10:52:44.637Z,16.20
2019-05-03T10:55:15.887Z,16.10
2019-05-03T10:57:49.242Z,16.00
2019-05-03T11:00:42.393Z,15.90
2019-05-03T11:03:01.717Z,15.70
2019-05-03T11:05:32.034Z,15.40
2019-05-03T11:08:04.906Z,15.30
2019-05-03T11:10:34.818Z,15.20
2019-05-03T11:13:05.903Z,15.20
2019-05-03T11:15:36.306Z,15.10
2019-05-03T11:18:06.667Z,14.90
2019-05-03T11:20:37.800Z,14.80
2019-05-03T11:23:08.842Z,14.80
2019-05-03T11:25:39.306Z,14.80
2019-05-03T11:28:22.107Z,14.90
2019-05-03T11:30:57.800Z,14.90
2019-05-03T11:33:39.719Z,15.00
2019-05-03T11:36:27.756Z,15.00
2019-05-03T11:38:59.664Z,14.80
2019-05-03T11:41:32.857Z,14.90
2019-05-03T11:44:21.185Z,15.00
2019-05-03T11:46:51.644Z,15.30
2019-05-03T11:49:22.491Z,15.60
2019-05-03T11:51:52.834Z,15.90
2019-05-03T11:54:25.013Z,16.10
2019-05-03T11:56:56.029Z,16.30
2019-05-03T11:59:26.618Z,16.50
2019-05-03T12:02:08.572Z,16.60
2019-05-03T12:04:38.963Z,16.70
2019-05-03T12:07:09.484Z,16.90
2019-05-03T12:09:39.951Z,16.80
2019-05-03T12:12:11.895Z,16.90
2019-05-03T12:14:42.434Z,16.90
2019-05-03T12:17:20.978Z,17.00
2019-05-03T12:19:48.104Z,17.00
2019-05-03T12:22:19.110Z,16.90
2019-05-03T12:24:50.239Z,16.90
2019-05-03T12:27:20.774Z,16.90
2019-05-03T12:29:52.482Z,17.00
2019-05-03T12:32:25.032Z,17.20
2019-05-03T12:34:55.247Z,17.30
2019-05-03T12:37:25.622Z,17.40
2019-05-03T12:39:56.066Z,17.30
2019-05-03T12:42:26.448Z,17.20
2019-05-03T12:44:56.787Z,17.20
2019-05-03T12:47:27.159Z,17.20
2019-05-03T12:49:57.621Z,17.20
2019-05-03T12:52:28.686Z,17.20
2019-05-03T12:54:59.232Z,17.30
2019-05-03T12:57:29.571Z,17.30
2019-05-03T13:00:25.083Z,17.30
2019-05-03T13:03:15.241Z,17.30
2019-05-03T13:05:45.772Z,17.40
2019-05-03T13:08:36.907Z,17.50
2019-05-03T13:11:07.630Z,17.70
2019-05-03T13:13:37.972Z,17.70
2019-05-03T13:16:09.678Z,17.80
2019-05-03T13:18:40.002Z,17.80
2019-05-03T13:21:11.209Z,17.80
2019-05-03T13:23:41.753Z,17.80
2019-05-03T13:26:14.551Z,17.80
2019-05-03T13:28:45.663Z,17.70
2019-05-03T13:31:16.303Z,17.70
2019-05-03T13:33:46.684Z,17.60
2019-05-03T13:36:17.159Z,17.50
2019-05-03T13:38:47.911Z,17.40
2019-05-03T13:41:18.258Z,17.30
2019-05-03T13:43:48.669Z,17.30
2019-05-03T13:46:19.063Z,17.30
2019-05-03T13:48:49.632Z,17.20
2019-05-03T13:51:20.081Z,17.20
2019-05-03T13:53:50.603Z,17.20
2019-05-03T13:56:21.107Z,17.00
2019-05-03T13:58:51.486Z,17.00
2019-05-03T14:01:22.026Z,17.00
2019-05-03T14:03:54.508Z,16.90
2019-05-03T14:06:24.724Z,16.70
2019-05-03T14:08:55.204Z,16.60
2019-05-03T14:11:25.579Z,16.30
2019-05-03T14:13:55.954Z,15.60
2019-05-03T14:16:26.224Z,14.90
2019-05-03T14:19:01.191Z,14.20
2019-05-03T14:21:45.160Z,13.70
2019-05-03T14:24:15.878Z,13.40
2019-05-03T14:26:46.396Z,13.20
2019-05-03T14:29:16.864Z,13.10
2019-05-03T14:31:47.221Z,13.10
2019-05-03T14:34:17.740Z,13.00
2019-05-03T14:36:48.356Z,13.00
2019-05-03T14:39:18.758Z,13.10
2019-05-03T14:41:49.114Z,13.00
2019-05-03T14:44:19.567Z,13.00
2019-05-03T14:46:50.030Z,12.90
2019-05-03T14:49:20.409Z,12.80
2019-05-03T14:51:50.926Z,12.70
2019-05-03T14:54:24.821Z,12.50
2019-05-03T14:57:01.622Z,12.40
2019-05-03T14:59:49.618Z,12.30
2019-05-03T15:02:39.792Z,12.20
2019-05-03T15:04:58.545Z,12.10
2019-05-03T15:07:28.902Z,12.00
2019-05-03T15:09:59.250Z,11.90
2019-05-03T15:12:29.757Z,11.90
2019-05-03T15:15:00.651Z,11.90
2019-05-03T15:17:31.043Z,11.80
2019-05-03T15:20:01.394Z,11.80
2019-05-03T15:22:31.786Z,11.70
2019-05-03T15:25:02.243Z,11.70
2019-05-03T15:27:32.710Z,11.60
2019-05-03T15:30:04.850Z,11.60
2019-05-03T15:32:35.434Z,11.70
2019-05-03T15:35:06.851Z,11.60
2019-05-03T15:37:37.214Z,11.50
2019-05-03T15:40:09.370Z,11.40
2019-05-03T15:42:42.174Z,11.40
2019-05-03T15:45:26.751Z,11.40
2019-05-03T15:48:08.396Z,11.40
2019-05-03T15:50:38.750Z,11.50
2019-05-03T15:53:09.215Z,11.50
2019-05-03T15:55:39.559Z,11.50
2019-05-03T15:58:09.970Z,11.50
2019-05-03T16:00:40.351Z,11.60
2019-05-03T16:03:11.295Z,11.60
2019-05-03T16:05:41.910Z,11.60
2019-05-03T16:08:12.371Z,11.70
2019-05-03T16:10:42.643Z,11.70
2019-05-03T16:13:14.286Z,11.80
2019-05-03T16:15:44.844Z,11.80
2019-05-03T16:18:15.201Z,11.90
2019-05-03T16:20:45.655Z,11.90
2019-05-03T16:23:16.235Z,11.90
2019-05-03T16:25:46.758Z,11.90
2019-05-03T16:28:26.698Z,11.90
2019-05-03T16:30:59.830Z,11.80
2019-05-03T16:33:30.143Z,11.80
2019-05-03T16:36:00.608Z,11.80
2019-05-03T16:38:31.075Z,11.80
2019-05-03T16:41:01.515Z,11.80
2019-05-03T16:43:32.334Z,11.80
2019-05-03T16:46:02.645Z,11.80
2019-05-03T16:48:35.171Z,11.80
2019-05-03T16:51:05.100Z,11.80
2019-05-03T16:53:35.605Z,11.90
2019-05-03T16:56:06.650Z,11.90
2019-05-03T16:58:37.230Z,11.90
2019-05-03T17:01:07.675Z,11.90
2019-05-03T17:03:45.432Z,11.90
2019-05-03T17:06:40.384Z,12.00
2019-05-03T17:09:29.871Z,11.90
2019-05-03T17:12:09.710Z,11.90
2019-05-03T17:14:40.336Z,11.90
2019-05-03T17:17:10.776Z,11.90
2019-05-03T17:19:41.251Z,11.80
2019-05-03T17:22:11.654Z,11.80
2019-05-03T17:24:42.014Z,11.70
2019-05-03T17:27:12.415Z,11.60
2019-05-03T17:29:44.540Z,11.60
2019-05-03T17:32:15.422Z,11.80
2019-05-03T17:34:45.990Z,11.80
2019-05-03T17:37:16.498Z,11.70
2019-05-03T17:40:01.814Z,11.70
2019-05-03T17:42:50.015Z,11.60
2019-05-03T17:45:25.799Z,11.60
2019-05-03T17:47:56.335Z,11.60
2019-05-03T17:50:26.642Z,11.60
2019-05-03T17:53:05.859Z,11.50
2019-05-03T17:55:45.726Z,11.50
2019-05-03T17:58:26.037Z,11.60
2019-05-03T18:01:06.326Z,11.60
2019-05-03T18:03:39.294Z,11.60
2019-05-03T18:06:16.707Z,11.60
2019-05-03T18:08:55.121Z,11.60
2019-05-03T18:11:29.419Z,11.60
2019-05-03T18:13:59.906Z,11.50
2019-05-03T18:16:30.272Z,11.50
2019-05-03T18:19:00.701Z,11.50
2019-05-03T18:21:31.026Z,11.50
2019-05-03T18:24:01.533Z,11.50
2019-05-03T18:26:31.900Z,11.50
2019-05-03T18:29:02.504Z,11.50
2019-05-03T18:31:33.483Z,11.40
2019-05-03T18:34:06.318Z,11.30
2019-05-03T18:36:35.751Z,11.30
2019-05-03T18:39:08.381Z,11.30
2019-05-03T18:41:38.935Z,11.50
2019-05-03T18:44:21.404Z,11.70
2019-05-03T18:46:55.058Z,11.70
2019-05-03T18:49:25.937Z,11.60
2019-05-03T18:51:56.377Z,11.50
2019-05-03T18:54:26.806Z,11.40
2019-05-03T18:56:57.190Z,11.40
2019-05-03T18:59:27.562Z,11.30
2019-05-03T19:01:58.002Z,11.30
2019-05-03T19:04:38.034Z,11.30
2019-05-03T19:07:16.687Z,11.30
2019-05-03T19:10:01.960Z,11.20
2019-05-03T19:13:01.278Z,11.20
2019-05-03T19:15:34.568Z,11.30
2019-05-03T19:18:15.437Z,11.30
2019-05-03T19:20:46.183Z,11.20
2019-05-03T19:23:16.810Z,11.20
2019-05-03T19:25:49.545Z,11.30
2019-05-03T19:28:19.301Z,11.30
2019-05-03T19:30:49.739Z,11.30
2019-05-03T19:33:20.258Z,11.30
2019-05-03T19:35:50.638Z,11.20
2019-05-03T19:38:20.898Z,11.10
2019-05-03T19:40:51.458Z,11.10
2019-05-03T19:43:22.203Z,11.10
2019-05-03T19:45:52.618Z,11.00
2019-05-03T19:48:23.052Z,11.00
2019-05-03T19:50:54.867Z,11.00
2019-05-03T19:53:50.451Z,11.10
2019-05-03T19:56:21.729Z,11.20
2019-05-03T19:58:59.971Z,11.20
2019-05-03T20:01:48.062Z,11.20
2019-05-03T20:04:43.313Z,11.20
2019-05-03T20:07:36.599Z,11.10
2019-05-03T20:10:07.505Z,11.10
2019-05-03T20:12:38.114Z,11.20
2019-05-03T20:15:08.782Z,11.20
2019-05-03T20:17:39.190Z,11.20
2019-05-03T20:20:09.787Z,11.20
2019-05-03T20:22:40.386Z,11.20
2019-05-03T20:25:11.023Z,11.20
2019-05-03T20:27:41.523Z,11.10
2019-05-03T20:30:12.298Z,11.10
2019-05-03T20:32:44.906Z,11.20
2019-05-03T20:35:18.864Z,11.10
2019-05-03T20:37:46.631Z,11.00
2019-05-03T20:40:17.649Z,10.90
2019-05-03T20:43:01.229Z,10.90
2019-05-03T20:46:05.730Z,10.90
2019-05-03T20:48:37.143Z,11.00
2019-05-03T20:51:07.815Z,11.00
2019-05-03T20:53:38.231Z,11.00
2019-05-03T20:56:08.787Z,11.00
2019-05-03T20:58:39.218Z,11.00
2019-05-03T21:01:09.591Z,11.10
2019-05-03T21:03:41.251Z,11.10
2019-05-03T21:06:11.914Z,11.10
2019-05-03T21:08:52.192Z,11.00
2019-05-03T21:11:14.758Z,11.00
2019-05-03T21:13:45.359Z,11.00
2019-05-03T21:16:34.663Z,11.00
2019-05-03T21:19:15.883Z,10.90
2019-05-03T21:21:49.147Z,10.80
2019-05-03T21:24:36.093Z,10.80
2019-05-03T21:27:06.570Z,10.70
2019-05-03T21:29:49.796Z,10.70
2019-05-03T21:32:20.256Z,10.60
2019-05-03T21:34:50.798Z,10.60
2019-05-03T21:37:21.083Z,10.60
2019-05-03T21:39:51.439Z,10.50
2019-05-03T21:42:21.931Z,10.50
2019-05-03T21:44:52.324Z,10.50
2019-05-03T21:47:44.382Z,10.50
2019-05-03T21:50:17.528Z,10.50
2019-05-03T21:52:47.867Z,10.60
2019-05-03T21:55:18.178Z,10.50
2019-05-03T21:57:48.542Z,10.50
2019-05-03T22:00:19.652Z,10.40
2019-05-03T22:02:50.118Z,10.30
2019-05-03T22:05:20.491Z,10.30
2019-05-03T22:07:50.971Z,10.30
2019-05-03T22:10:21.827Z,10.20
2019-05-03T22:12:54.324Z,10.20
2019-05-03T22:15:35.506Z,10.10
2019-05-03T22:18:12.677Z,10.10
2019-05-03T22:21:05.567Z,10.00
2019-05-03T22:24:07.342Z,10.00
2019-05-03T22:26:55.507Z,9.90
2019-05-03T22:29:25.999Z,9.90
2019-05-03T22:31:56.349Z,9.80
2019-05-03T22:34:26.690Z,9.80
2019-05-03T22:36:57.144Z,9.70
2019-05-03T22:39:27.611Z,9.70
2019-05-03T22:41:57.966Z,9.60
2019-05-03T22:44:28.307Z,9.60
2019-05-03T22:46:58.763Z,9.60
2019-05-03T22:49:29.247Z,9.60
2019-05-03T22:51:59.602Z,9.60
2019-05-03T22:54:30.094Z,9.70
2019-05-03T22:57:00.466Z,9.70
2019-05-03T22:59:30.926Z,9.70
2019-05-03T23:02:01.275Z,9.70
2019-05-03T23:04:31.619Z,9.70
2019-05-03T23:07:02.004Z,9.70
2019-05-03T23:09:32.346Z,9.70
2019-05-03T23:12:02.710Z,9.70
2019-05-03T23:14:34.702Z,9.70
2019-05-03T23:17:05.253Z,9.70
2019-05-03T23:19:37.177Z,9.70
2019-05-03T23:22:29.123Z,9.70
2019-05-03T23:24:59.482Z,9.70
2019-05-03T23:27:29.851Z,9.60
2019-05-03T23:30:00.720Z,9.60
2019-05-03T23:32:31.068Z,9.60
2019-05-03T23:35:01.544Z,9.60
2019-05-03T23:37:32.023Z,9.50
2019-05-03T23:40:04.320Z,9.50
2019-05-03T23:42:35.084Z,9.50
2019-05-03T23:45:05.739Z,9.60
2019-05-03T23:47:45.184Z,9.60
2019-05-03T23:50:18.088Z,9.60
2019-05-03T23:52:48.451Z,9.60
2019-05-03T23:55:40.774Z,9.70
2019-05-03T23:58:11.252Z,9.60
